Archiv-/Tagesdaten

--Timestamp---	Temp	Chill	HIndex	Humid	Dewpt	Wind	HiWind	WindDir	Rain	Barom	Solar	ET	UV
--------------	----	-----	------	-----	-----	----	------	-------	----	-----	-----	--	--
20080205 00:05	1.9	1.9	1.9	91	0.6	5	11	247	0.00	1017.613	0	0.000	0
20080205 00:10	1.9	1.9	1.9	91	0.6	5	10	225	0.00	1017.613	0	0.000	0
20080205 00:15	1.8	1.8	1.8	91	0.5	3	8	247	0.00	1017.613	0	0.000	0
20080205 00:20	1.8	1.8	1.8	91	0.5	5	10	247	0.00	1017.680	0	0.000	0
20080205 00:25	1.8	1.8	1.8	91	0.5	3	6	247	0.00	1017.680	0	0.000	0
20080205 00:30	1.8	1.8	1.8	91	0.5	3	10	225	0.00	1017.714	0	0.000	0
20080205 00:35	1.8	1.8	1.8	91	0.5	3	8	225	0.00	1017.748	0	0.000	0
20080205 00:40	1.8	1.8	1.8	91	0.5	3	8	225	0.00	1017.816	0	0.000	0
20080205 00:45	1.7	1.7	1.7	91	0.4	3	6	247	0.20	1017.850	0	0.000	0
20080205 00:50	1.7	1.7	1.7	91	0.4	3	8	247	0.00	1017.850	0	0.000	0
20080205 00:55	1.7	1.7	1.7	92	0.6	3	8	225	0.00	1017.850	0	0.000	0
20080205 01:00	1.7	1.7	1.7	92	0.6	3	8	225	0.00	1017.951	0	0.000	0
20080205 01:05	1.7	1.7	1.7	92	0.6	3	8	225	0.00	1017.748	0	0.000	0
20080205 01:10	1.7	1.7	1.7	91	0.4	3	11	225	0.00	1017.917	0	0.000	0
20080205 01:15	1.7	1.7	1.7	91	0.4	2	6	225	0.00	1017.917	0	0.000	0
20080205 01:20	1.7	1.7	1.7	91	0.4	2	6	225	0.00	1018.019	0	0.000	0
20080205 01:25	1.6	1.6	1.6	91	0.3	2	5	225	0.00	1018.053	0	0.000	0
20080205 01:30	1.6	1.6	1.6	92	0.5	3	6	225	0.00	1018.222	0	0.000	0
20080205 01:35	1.6	1.6	1.6	92	0.4	2	8	225	0.00	1018.188	0	0.000	0
20080205 01:40	1.6	1.6	1.6	92	0.5	2	6	225	0.00	1018.256	0	0.000	0
20080205 01:45	1.6	1.6	1.6	92	0.5	3	10	225	0.00	1018.358	0	0.000	0
20080205 01:50	1.7	1.7	1.7	92	0.5	3	6	225	0.00	1018.629	0	0.000	0
20080205 01:55	1.7	1.7	1.7	92	0.6	3	6	225	0.00	1018.730	0	0.000	0
20080205 02:00	1.8	1.8	1.8	92	0.6	2	5	247	0.00	1018.798	0	0.000	0
20080205 02:05	1.8	1.8	1.8	92	0.6	2	6	247	0.00	1019.170	0	0.000	0
20080205 02:10	1.8	1.8	1.8	91	0.5	3	10	225	0.00	1019.272	0	0.000	0
20080205 02:15	1.9	1.9	1.9	91	0.6	3	8	225	0.00	1019.272	0	0.000	0
20080205 02:20	1.9	1.9	1.9	91	0.6	5	10	247	0.00	1019.272	0	0.000	0
20080205 02:25	2.0	2.0	2.0	91	0.7	3	10	247	0.00	1019.238	0	0.000	0
20080205 02:30	2.1	2.1	2.1	91	0.7	3	6	225	0.00	1019.204	0	0.000	0
20080205 02:35	2.1	2.1	2.1	91	0.8	3	6	247	0.00	1019.238	0	0.000	0
20080205 02:40	2.2	2.2	2.2	91	0.9	3	8	225	0.00	1019.272	0	0.000	0
20080205 02:45	2.2	2.2	2.2	90	0.8	3	8	247	0.00	1019.204	0	0.000	0
20080205 02:50	2.3	2.3	2.3	90	0.8	5	10	247	0.00	1019.170	0	0.000	0
20080205 02:55	2.3	2.3	2.3	90	0.8	5	8	247	0.00	1019.204	0	0.000	0
20080205 03:00	2.3	2.3	2.3	89	0.7	5	10	270	0.00	1019.238	0	0.000	0
20080205 03:05	2.3	0.5	2.3	89	0.7	6	10	247	0.00	1019.543	0	0.000	0
20080205 03:10	2.3	0.5	2.3	89	0.7	6	16	247	0.00	1019.577	0	0.000	0
20080205 03:15	2.3	0.5	2.3	89	0.7	6	14	247	0.00	1019.645	0	0.000	0
20080205 03:20	2.3	2.3	2.3	89	0.7	5	19	247	0.00	1019.645	0	0.000	0
20080205 03:25	2.3	0.5	2.3	89	0.7	6	14	247	0.00	1019.746	0	0.000	0
20080205 03:30	2.3	2.3	2.3	89	0.7	5	11	247	0.00	1019.814	0	0.000	0
20080205 03:35	2.4	2.4	2.4	89	0.8	5	14	247	0.00	1019.814	0	0.000	0
20080205 03:40	2.4	2.4	2.4	89	0.8	5	10	247	0.00	1019.882	0	0.000	0
20080205 03:45	2.4	2.4	2.4	89	0.8	3	10	247	0.00	1019.949	0	0.000	0
20080205 03:50	2.4	2.4	2.4	89	0.8	5	10	225	0.00	1020.051	0	0.000	0
20080205 03:55	2.4	2.4	2.4	89	0.8	5	10	247	0.00	1019.983	0	0.000	0
20080205 04:00	2.4	2.4	2.4	89	0.8	5	8	247	0.00	1020.017	0	0.000	0
20080205 04:05	2.4	2.4	2.4	89	0.8	5	8	247	0.00	1020.051	0	0.000	0
20080205 04:10	2.4	2.4	2.4	89	0.8	3	8	247	0.00	1020.119	0	0.000	0
20080205 04:15	2.4	2.4	2.4	89	0.8	3	8	247	0.00	1020.220	0	0.000	0
20080205 04:20	2.4	2.4	2.4	89	0.8	5	10	247	0.00	1020.254	0	0.000	0
20080205 04:25	2.4	2.4	2.4	89	0.8	5	8	247	0.00	1020.322	0	0.000	0
20080205 04:30	2.4	2.4	2.4	89	0.8	5	8	247	0.00	1020.390	0	0.000	0
20080205 04:35	2.4	2.4	2.4	89	0.8	5	10	247	0.00	1020.423	0	0.000	0
20080205 04:40	2.4	2.4	2.4	89	0.8	5	10	247	0.00	1020.423	0	0.000	0
20080205 04:45	2.4	2.4	2.4	89	0.8	5	10	225	0.00	1020.423	0	0.000	0
20080205 04:50	2.4	2.4	2.4	89	0.8	3	10	247	0.00	1020.525	0	0.000	0
20080205 04:55	2.4	2.4	2.4	88	0.7	3	10	247	0.00	1020.627	0	0.000	0
20080205 05:00	2.4	2.4	2.4	89	0.8	3	6	247	0.00	1020.694	0	0.000	0
20080205 05:05	2.4	2.4	2.4	89	0.8	5	10	247	0.00	1020.864	0	0.000	0
20080205 05:10	2.4	2.4	2.4	88	0.7	5	8	247	0.00	1020.864	0	0.000	0
20080205 05:15	2.4	2.4	2.4	88	0.7	2	6	247	0.00	1020.931	0	0.000	0
20080205 05:20	2.4	2.4	2.4	88	0.7	3	8	247	0.00	1020.999	0	0.000	0
20080205 05:25	2.4	2.4	2.4	88	0.7	5	8	247	0.00	1020.999	0	0.000	0
20080205 05:30	2.4	2.4	2.4	88	0.6	3	11	247	0.00	1020.931	0	0.000	0
20080205 05:35	2.4	2.4	2.4	88	0.6	2	6	247	0.00	1020.897	0	0.000	0
20080205 05:40	2.4	2.4	2.4	88	0.6	2	6	247	0.00	1020.931	0	0.000	0
20080205 05:45	2.3	2.3	2.3	88	0.6	3	6	247	0.00	1020.931	0	0.000	0
20080205 05:50	2.3	2.3	2.3	88	0.6	3	8	225	0.00	1020.965	0	0.000	0
20080205 05:55	2.3	2.3	2.3	88	0.5	3	8	247	0.00	1020.965	0	0.000	0
20080205 06:00	2.3	2.3	2.3	89	0.7	2	8	225	0.00	1021.134	0	0.000	0
20080205 06:05	2.3	2.3	2.3	89	0.7	3	8	247	0.00	1021.202	0	0.000	0
20080205 06:10	2.3	2.3	2.3	89	0.7	3	8	247	0.00	1021.236	0	0.000	0
20080205 06:15	2.2	2.2	2.2	89	0.6	3	8	225	0.00	1021.304	0	0.000	0
20080205 06:20	2.2	2.2	2.2	89	0.6	3	8	247	0.00	1021.372	0	0.000	0
20080205 06:25	2.2	2.2	2.2	89	0.5	3	8	225	0.00	1021.405	0	0.000	0
20080205 06:30	2.2	2.2	2.2	89	0.5	3	10	270	0.00	1021.372	0	0.000	0
20080205 06:35	2.1	2.1	2.1	88	0.3	5	10	247	0.00	1021.405	0	0.000	0
20080205 06:40	2.0	2.0	2.0	88	0.2	2	10	270	0.00	1021.439	0	0.000	0
20080205 06:45	1.9	1.9	1.9	88	0.1	2	6	225	0.00	1021.507	0	0.000	0
20080205 06:50	1.8	1.8	1.8	89	0.2	2	5	225	0.00	1021.575	0	0.000	0
20080205 06:55	1.8	1.8	1.8	88	0.1	2	6	225	0.00	1021.643	0	0.000	0
20080205 07:00	1.8	1.8	1.8	88	0.0	2	5	225	0.00	1021.778	0	0.000	0
20080205 07:05	1.7	1.7	1.7	89	0.1	2	3	225	0.00	1021.913	0	0.000	0
20080205 07:10	1.6	1.6	1.6	89	-0.0	2	5	225	0.00	1022.049	0	0.000	0
20080205 07:15	1.6	1.6	1.6	89	-0.1	2	5	225	0.00	1022.083	0	0.000	0
20080205 07:20	1.5	1.5	1.5	89	-0.1	2	5	225	0.00	1022.218	0	0.000	0
20080205 07:25	1.5	1.5	1.5	89	-0.1	2	5	225	0.00	1022.286	0	0.000	0
20080205 07:30	1.4	1.4	1.4	89	-0.2	0	5	225	0.00	1022.354	0	0.000	0
20080205 07:35	1.3	1.3	1.3	89	-0.3	0	2	225	0.00	1022.387	0	0.000	0
20080205 07:40	1.3	1.3	1.3	89	-0.3	0	3	225	0.00	1022.387	0	0.000	0
20080205 07:45	1.1	1.1	1.1	90	-0.3	0	2	225	0.00	1022.387	1	0.000	0
20080205 07:50	1.0	1.0	1.0	90	-0.5	0	5	225	0.00	1022.421	5	0.000	0
20080205 07:55	0.9	0.9	0.9	90	-0.5	0	6	225	0.00	1022.523	7	0.000	0
20080205 08:00	0.9	0.9	0.9	91	-0.4	2	6	225	0.00	1022.523	9	0.000	0
20080205 08:05	0.9	0.9	0.9	91	-0.4	0	3	225	0.00	1022.523	11	0.000	0
20080205 08:10	0.8	0.8	0.8	91	-0.5	0	0	225	0.00	1022.489	13	0.000	0
20080205 08:15	0.8	0.8	0.8	91	-0.5	2	6	225	0.00	1022.625	15	0.000	0
20080205 08:20	0.8	0.8	0.8	91	-0.5	3	6	225	0.00	1022.557	17	0.000	0
20080205 08:25	0.8	0.8	0.8	91	-0.5	2	5	202	0.00	1022.354	19	0.000	0
20080205 08:30	0.9	0.9	0.9	91	-0.4	0	5	202	0.00	1022.354	19	0.000	0
20080205 08:35	1.0	1.0	1.0	91	-0.3	0	3	202	0.00	1022.354	21	0.000	0
20080205 08:40	1.1	1.1	1.1	91	-0.2	2	6	202	0.00	1022.387	22	0.000	0
20080205 08:45	1.2	1.2	1.2	91	-0.1	2	6	202	0.00	1022.387	24	0.000	0
20080205 08:50	1.3	1.3	1.3	91	-0.0	2	6	202	0.00	1022.387	25	0.000	0
20080205 08:55	1.3	1.3	1.3	91	0.0	0	6	202	0.00	1022.286	26	0.000	0
20080205 09:00	1.3	1.3	1.3	90	-0.1	0	2	202	0.00	1022.387	26	0.000	0
20080205 09:05	1.6	1.6	1.6	90	0.1	0	3	202	0.00	1022.523	28	0.000	0
20080205 09:10	1.6	1.6	1.6	90	0.2	0	3	202	0.00	1022.591	29	0.000	0
20080205 09:15	1.7	1.7	1.7	90	0.3	0	3	202	0.00	1022.591	30	0.000	0
20080205 09:20	1.8	1.8	1.8	89	0.2	0	2	202	0.00	1022.625	30	0.000	0
20080205 09:25	1.9	1.9	1.9	89	0.3	2	5	180	0.00	1022.591	30	0.000	0
20080205 09:30	2.0	2.0	2.0	88	0.2	0	5	180	0.00	1022.658	30	0.000	0
20080205 09:35	2.1	2.1	2.1	89	0.5	0	2	180	0.00	1022.658	30	0.000	0
20080205 09:40	2.3	2.3	2.3	88	0.6	3	11	180	0.00	1022.591	30	0.000	0
20080205 09:45	2.5	2.5	2.5	87	0.6	0	5	202	0.00	1022.557	32	0.000	0
20080205 09:50	2.7	2.7	2.7	86	0.6	3	11	202	0.00	1022.489	33	0.000	0
20080205 09:55	2.9	2.9	2.9	86	0.8	3	11	202	0.00	1022.523	33	0.000	0
20080205 10:00	3.1	3.1	3.1	86	0.9	2	6	202	0.00	1022.489	35	0.020	0
20080205 10:05	3.2	3.2	3.2	85	0.9	2	8	180	0.00	1022.489	38	0.000	0
20080205 10:10	3.3	3.3	3.3	84	0.9	0	3	180	0.00	1022.489	41	0.000	0
20080205 10:15	3.6	3.6	3.6	84	1.2	3	10	180	0.00	1022.557	43	0.000	0
20080205 10:20	3.8	3.8	3.8	81	0.9	2	16	180	0.00	1022.557	45	0.000	0
20080205 10:25	4.1	4.1	4.1	80	0.9	3	11	202	0.00	1022.591	51	0.000	0
20080205 10:30	4.2	4.2	4.2	80	1.0	3	14	180	0.00	1022.489	65	0.000	1
20080205 10:35	4.3	4.3	4.3	78	0.8	5	18	225	0.00	1022.489	85	0.000	1
20080205 10:40	4.6	4.6	4.6	77	0.9	3	10	202	0.00	1022.591	120	0.000	1
20080205 10:45	4.8	4.8	4.8	76	0.9	3	16	202	0.00	1022.591	139	0.000	1
20080205 10:50	4.9	4.9	4.9	72	0.3	3	14	225	0.00	1022.625	139	0.000	1
20080205 10:55	4.9	4.9	4.9	74	0.6	2	10	202	0.00	1022.557	129	0.000	1
20080205 11:00	4.9	4.9	4.9	73	0.5	2	11	202	0.00	1022.421	114	0.040	1
20080205 11:05	4.8	4.8	4.8	73	0.4	3	10	225	0.00	1022.489	105	0.000	1
20080205 11:10	4.8	4.8	4.8	74	0.6	3	11	202	0.00	1022.523	183	0.000	1
20080205 11:15	5.0	5.0	5.0	73	0.6	3	10	225	0.00	1022.658	299	0.000	1
20080205 11:20	5.3	5.3	5.3	71	0.5	5	11	180	0.00	1022.557	340	0.000	1
20080205 11:25	5.7	5.7	5.7	69	0.4	3	11	247	0.00	1022.557	362	0.000	1
20080205 11:30	5.8	5.8	5.8	68	0.4	3	13	247	0.00	1022.387	311	0.000	1
20080205 11:35	6.0	6.0	6.0	67	0.3	3	8	202	0.00	1022.489	285	0.000	1
20080205 11:40	5.9	5.9	5.9	66	0.1	3	16	225	0.00	1022.455	261	0.000	1
20080205 11:45	5.9	5.9	5.9	64	-0.3	3	11	180	0.00	1022.455	274	0.000	1
20080205 11:50	5.9	5.9	5.9	65	-0.1	2	6	247	0.00	1022.387	205	0.000	1
20080205 11:55	5.8	5.8	5.8	68	0.4	5	8	225	0.00	1022.354	215	0.000	1
20080205 12:00	5.8	5.8	5.8	66	-0.0	3	11	202	0.00	1022.218	205	0.080	1
20080205 12:05	5.8	5.8	5.8	65	-0.2	5	16	202	0.00	1022.455	198	0.000	1
20080205 12:10	5.8	5.8	5.8	65	-0.3	3	11	202	0.00	1022.354	167	0.000	1
20080205 12:15	5.8	5.8	5.8	64	-0.5	5	10	225	0.00	1022.523	148	0.000	1
20080205 12:20	5.8	5.8	5.8	64	-0.5	2	6	202	0.00	1022.387	147	0.000	1
20080205 12:25	5.8	5.8	5.8	65	-0.3	2	10	202	0.00	1022.286	148	0.000	1
20080205 12:30	5.8	5.8	5.8	65	-0.2	3	14	180	0.00	1022.184	142	0.000	1
20080205 12:35	5.9	5.9	5.9	65	-0.2	2	10	202	0.00	1022.218	170	0.000	1
20080205 12:40	5.9	5.9	5.9	66	0.1	3	10	225	0.00	1022.150	203	0.000	1
20080205 12:45	6.2	6.2	6.2	66	0.3	2	8	202	0.00	1022.083	310	0.000	1
20080205 12:50	6.4	6.4	6.4	65	0.3	3	11	180	0.00	1021.981	354	0.000	1
20080205 12:55	6.6	6.6	6.6	63	0.0	3	16	225	0.00	1021.913	238	0.000	1
20080205 13:00	6.6	6.6	6.6	62	-0.1	3	16	202	0.00	1021.880	347	0.080	1
20080205 13:05	6.7	6.7	6.7	63	0.2	3	14	157	0.00	1021.947	298	0.000	1
20080205 13:10	6.7	6.7	6.7	63	0.1	5	14	202	0.00	1021.880	244	0.000	1
20080205 13:15	6.6	6.6	6.6	64	0.3	2	5	202	0.00	1021.812	171	0.000	1
20080205 13:20	6.5	6.5	6.5	64	0.2	2	5	180	0.00	1021.643	168	0.000	1
20080205 13:25	6.4	6.4	6.4	63	-0.1	3	10	180	0.00	1021.507	162	0.000	1
20080205 13:30	6.4	6.4	6.4	64	0.1	2	10	225	0.00	1021.439	149	0.000	1
20080205 13:35	6.3	6.3	6.3	64	0.0	2	6	180	0.00	1021.473	149	0.000	1
20080205 13:40	6.3	6.3	6.3	64	0.0	2	6	180	0.00	1021.405	161	0.000	1
20080205 13:45	6.3	6.3	6.3	63	-0.2	3	11	180	0.00	1021.372	200	0.000	1
20080205 13:50	6.4	6.4	6.4	65	0.3	2	8	157	0.00	1021.236	224	0.000	1
20080205 13:55	6.6	6.6	6.6	64	0.2	2	8	157	0.00	1021.202	244	0.000	1
20080205 14:00	6.8	6.8	6.8	64	0.4	3	11	202	0.00	1021.134	257	0.080	1
20080205 14:05	7.0	7.0	7.0	62	0.2	2	14	157	0.00	1020.965	267	0.000	1
20080205 14:10	7.1	7.1	7.1	62	0.3	3	8	157	0.00	1020.931	262	0.000	1
20080205 14:15	7.1	7.1	7.1	62	0.3	3	14	180	0.00	1020.965	289	0.000	1
20080205 14:20	7.3	7.3	7.3	62	0.5	2	8	157	0.00	1020.897	303	0.000	1
20080205 14:25	7.5	7.5	7.5	61	0.5	3	10	202	0.00	1020.864	311	0.000	1
20080205 14:30	7.6	7.6	7.6	61	0.5	5	11	157	0.00	1020.762	284	0.000	1
20080205 14:35	7.4	7.4	7.4	61	0.4	3	18	157	0.00	1020.999	207	0.000	1
20080205 14:40	7.4	7.4	7.4	62	0.6	5	23	180	0.00	1021.101	235	0.000	1
20080205 14:45	7.4	7.4	7.4	62	0.6	5	21	180	0.00	1021.033	226	0.000	1
20080205 14:50	7.5	7.5	7.5	63	0.9	3	11	180	0.00	1020.965	253	0.000	1
20080205 14:55	7.6	7.6	7.6	62	0.7	3	18	180	0.00	1020.796	244	0.000	1
20080205 15:00	7.6	7.6	7.6	63	1.0	2	8	180	0.00	1020.897	189	0.100	1
20080205 15:05	7.5	7.5	7.5	64	1.1	2	10	180	0.00	1020.864	159	0.000	1
20080205 15:10	7.4	7.4	7.4	64	1.0	2	6	180	0.00	1021.101	126	0.000	0
20080205 15:15	7.3	7.3	7.3	65	1.2	2	5	157	0.00	1021.033	108	0.000	0
20080205 15:20	7.4	7.4	7.4	66	1.5	2	8	157	0.00	1021.033	105	0.000	0
20080205 15:25	7.4	7.4	7.4	65	1.3	2	6	157	0.00	1020.965	117	0.000	0
20080205 15:30	7.5	7.5	7.5	65	1.3	3	10	157	0.00	1020.830	110	0.000	0
20080205 15:35	7.6	7.6	7.6	65	1.5	2	5	157	0.00	1020.830	89	0.000	0
20080205 15:40	7.7	7.7	7.7	65	1.5	2	10	180	0.00	1020.897	103	0.000	0
20080205 15:45	7.6	7.6	7.6	65	1.4	2	6	157	0.00	1020.864	68	0.000	0
20080205 15:50	7.5	7.5	7.5	66	1.6	2	5	157	0.00	1020.796	73	0.000	0
20080205 15:55	7.4	7.4	7.4	65	1.3	2	6	157	0.00	1020.965	86	0.000	0
20080205 16:00	7.4	7.4	7.4	66	1.5	2	5	157	0.00	1021.033	56	0.040	0
20080205 16:05	7.4	7.4	7.4	67	1.7	3	11	157	0.00	1021.033	51	0.000	0
20080205 16:10	7.3	7.3	7.3	66	1.4	2	5	157	0.00	1020.999	48	0.000	0
20080205 16:15	7.3	7.3	7.3	67	1.6	2	6	157	0.00	1020.999	47	0.000	0
20080205 16:20	7.2	7.2	7.2	67	1.5	2	10	157	0.00	1021.101	48	0.000	0
20080205 16:25	7.2	7.2	7.2	68	1.7	2	5	180	0.00	1021.101	48	0.000	0
20080205 16:30	7.1	7.1	7.1	68	1.6	2	5	180	0.00	1021.101	43	0.000	0
20080205 16:35	6.9	6.9	6.9	68	1.4	2	5	157	0.00	1021.202	33	0.000	0
20080205 16:40	6.8	6.8	6.8	69	1.5	2	5	180	0.00	1021.168	26	0.000	0
20080205 16:45	6.7	6.7	6.7	69	1.4	2	6	157	0.00	1021.236	25	0.000	0
20080205 16:50	6.6	6.6	6.6	70	1.5	0	5	157	0.00	1021.236	22	0.000	0
20080205 16:55	6.4	6.4	6.4	70	1.4	0	3	180	0.00	1021.236	19	0.000	0
20080205 17:00	6.3	6.3	6.3	71	1.5	0	3	157	0.00	1021.405	15	0.020	0
20080205 17:05	6.2	6.2	6.2	72	1.5	0	3	202	0.00	1021.439	11	0.000	0
20080205 17:10	6.1	6.1	6.1	72	1.4	2	5	157	0.00	1021.405	7	0.000	0
20080205 17:15	5.9	5.9	5.9	73	1.5	0	3	180	0.00	1021.507	2	0.000	0
20080205 17:20	5.8	5.8	5.8	73	1.4	0	3	180	0.00	1021.473	0	0.000	0
20080205 17:25	5.8	5.8	5.8	74	1.5	0	3	180	0.00	1021.507	0	0.000	0
20080205 17:30	5.7	5.7	5.7	74	1.4	2	5	157	0.00	1021.575	0	0.000	0
20080205 17:35	5.6	5.6	5.6	74	1.3	2	6	225	0.00	1021.609	0	0.000	0
20080205 17:40	5.6	5.6	5.6	75	1.5	0	5	225	0.00	1021.744	0	0.000	0
20080205 17:45	5.5	5.5	5.5	75	1.4	2	5	225	0.00	1021.846	0	0.000	0
20080205 17:50	5.4	5.4	5.4	76	1.5	2	5	225	0.00	1021.913	0	0.000	0
20080205 17:55	5.5	5.5	5.5	73	1.0	3	6	225	0.00	1021.947	0	0.000	0
20080205 18:00	5.9	4.7	5.9	68	0.5	6	21	247	0.00	1021.846	0	0.000	0
20080205 18:05	6.5	5.3	6.5	65	0.4	6	16	247	0.00	1021.812	0	0.000	0
20080205 18:10	6.8	5.7	6.8	63	0.2	6	16	247	0.00	1021.643	0	0.000	0
20080205 18:15	6.8	6.8	6.8	63	0.2	3	8	247	0.00	1021.507	0	0.000	0
20080205 18:20	6.7	6.7	6.7	62	-0.0	2	5	247	0.00	1021.609	0	0.000	0
20080205 18:25	6.7	6.7	6.7	62	-0.1	2	5	247	0.00	1021.643	0	0.000	0
20080205 18:30	6.6	6.6	6.6	62	-0.1	0	3	247	0.00	1021.676	0	0.000	0
20080205 18:35	6.6	6.6	6.6	61	-0.4	2	8	225	0.00	1021.676	0	0.000	0
20080205 18:40	6.6	6.6	6.6	61	-0.4	2	6	225	0.00	1021.609	0	0.000	0
20080205 18:45	6.4	6.4	6.4	64	0.1	0	3	180	0.00	1021.541	0	0.000	0
20080205 18:50	6.3	6.3	6.3	68	0.9	2	5	157	0.00	1021.541	0	0.000	0
20080205 18:55	6.2	6.2	6.2	70	1.1	2	5	157	0.00	1021.575	0	0.000	0
20080205 19:00	6.1	6.1	6.1	72	1.4	2	8	180	0.00	1021.541	0	0.020	0
20080205 19:05	5.9	5.9	5.9	73	1.5	2	5	180	0.00	1021.643	0	0.000	0
20080205 19:10	5.8	5.8	5.8	73	1.4	2	5	180	0.00	1021.575	0	0.000	0
20080205 19:15	5.7	5.7	5.7	74	1.5	3	10	180	0.00	1021.575	0	0.000	0
20080205 19:20	5.7	5.7	5.7	75	1.6	3	8	180	0.00	1021.575	0	0.000	0
20080205 19:25	5.6	5.6	5.6	75	1.5	3	14	180	0.00	1021.575	0	0.000	0
20080205 19:30	5.7	5.7	5.7	74	1.4	5	16	180	0.00	1021.643	0	0.000	0
20080205 19:35	5.7	5.7	5.7	74	1.4	5	11	202	0.00	1021.676	0	0.000	0
20080205 19:40	5.6	5.6	5.6	74	1.3	5	10	180	0.00	1021.676	0	0.000	0
20080205 19:45	5.6	5.6	5.6	74	1.3	3	13	180	0.00	1021.507	0	0.000	0
20080205 19:50	5.6	5.6	5.6	73	1.2	5	16	180	0.00	1021.575	0	0.000	0
20080205 19:55	5.7	5.7	5.7	73	1.2	5	11	180	0.00	1021.541	0	0.000	0
20080205 20:00	5.7	4.4	5.7	70	0.7	6	19	202	0.00	1021.575	0	0.020	0
20080205 20:05	5.9	5.9	5.9	69	0.6	5	14	180	0.00	1021.541	0	0.000	0
20080205 20:10	5.9	4.7	5.9	69	0.7	6	16	202	0.00	1021.643	0	0.000	0
20080205 20:15	5.9	4.7	5.9	69	0.7	6	19	180	0.00	1021.778	0	0.000	0
20080205 20:20	5.8	5.8	5.8	71	1.0	5	11	202	0.00	1021.744	0	0.000	0
20080205 20:25	5.8	5.8	5.8	71	0.9	5	14	202	0.00	1021.676	0	0.000	0
20080205 20:30	5.7	5.7	5.7	72	1.0	5	10	180	0.00	1021.643	0	0.000	0
20080205 20:35	5.6	5.6	5.6	72	0.9	5	13	180	0.00	1021.575	0	0.000	0
20080205 20:40	5.5	5.5	5.5	73	1.0	3	13	202	0.00	1021.541	0	0.000	0
20080205 20:45	5.5	5.5	5.5	72	0.9	3	11	180	0.00	1021.609	0	0.000	0
20080205 20:50	5.4	5.4	5.4	74	1.2	3	8	202	0.00	1021.507	0	0.000	0
20080205 20:55	5.3	5.3	5.3	74	1.0	2	10	157	0.00	1021.372	0	0.000	0
20080205 21:00	5.2	5.2	5.2	75	1.2	3	8	180	0.00	1021.575	0	0.020	0
20080205 21:05	5.2	5.2	5.2	74	1.0	3	14	180	0.00	1021.202	0	0.000	0
20080205 21:10	5.2	5.2	5.2	74	1.0	5	14	180	0.00	1021.236	0	0.000	0
20080205 21:15	5.2	3.9	5.2	75	1.2	6	14	202	0.00	1021.202	0	0.000	0
20080205 21:20	5.2	3.3	5.2	74	0.9	8	18	225	0.00	1021.168	0	0.000	0
20080205 21:25	5.2	3.4	5.2	75	1.2	8	18	202	0.00	1021.134	0	0.000	0
20080205 21:30	5.2	5.2	5.2	75	1.1	5	14	202	0.00	1021.101	0	0.000	0
20080205 21:35	5.2	5.2	5.2	74	1.0	5	13	202	0.00	1021.067	0	0.000	0
20080205 21:40	5.3	5.3	5.3	72	0.7	5	16	202	0.00	1020.965	0	0.000	0
20080205 21:45	5.4	3.7	5.4	71	0.6	8	21	180	0.00	1021.033	0	0.000	0
20080205 21:50	5.5	4.2	5.5	71	0.7	6	21	202	0.00	1021.067	0	0.000	0
20080205 21:55	5.5	4.2	5.5	71	0.7	6	14	225	0.00	1021.067	0	0.000	0
20080205 22:00	5.4	5.4	5.4	71	0.6	5	11	225	0.00	1021.134	0	0.020	0
20080205 22:05	5.3	5.3	5.3	71	0.5	5	14	225	0.00	1021.134	0	0.000	0
20080205 22:10	5.2	3.9	5.2	72	0.6	6	19	202	0.00	1021.134	0	0.000	0
20080205 22:15	5.1	3.7	5.1	73	0.6	6	13	202	0.00	1021.101	0	0.000	0
20080205 22:20	4.9	4.9	4.9	73	0.5	5	11	202	0.00	1021.134	0	0.000	0
20080205 22:25	4.9	4.9	4.9	73	0.5	5	10	202	0.00	1021.134	0	0.000	0
20080205 22:30	4.9	3.5	4.9	73	0.5	6	14	202	0.00	1020.999	0	0.000	0
20080205 22:35	4.9	4.9	4.9	72	0.3	5	11	202	0.00	1021.067	0	0.000	0
20080205 22:40	4.9	4.9	4.9	73	0.5	3	10	202	0.00	1021.101	0	0.000	0
20080205 22:45	5.0	5.0	5.0	72	0.4	5	10	202	0.00	1021.101	0	0.000	0
20080205 22:50	5.1	5.1	5.1	72	0.5	5	16	202	0.00	1021.134	0	0.000	0
20080205 22:55	5.3	5.3	5.3	70	0.3	5	11	202	0.00	1021.101	0	0.000	0
20080205 23:00	5.5	5.5	5.5	70	0.5	3	10	202	0.00	1020.999	0	0.020	0
20080205 23:05	5.6	5.6	5.6	69	0.3	5	11	202	0.00	1020.999	0	0.000	0
20080205 23:10	5.6	5.6	5.6	69	0.3	5	11	202	0.00	1020.999	0	0.000	0
20080205 23:15	5.6	5.6	5.6	68	0.1	5	14	202	0.00	1020.864	0	0.000	0
20080205 23:20	5.6	5.6	5.6	68	0.2	2	8	180	0.00	1020.864	0	0.000	0
20080205 23:25	5.6	5.6	5.6	68	0.2	3	14	202	0.00	1020.897	0	0.000	0
20080205 23:30	5.6	5.6	5.6	68	0.2	3	11	180	0.00	1020.728	0	0.000	0
20080205 23:35	5.6	5.6	5.6	68	0.2	5	14	202	0.00	1020.694	0	0.000	0
20080205 23:40	5.7	4.4	5.7	67	0.0	6	18	202	0.00	1020.627	0	0.000	0
20080205 23:45	5.8	4.6	5.8	67	0.2	6	14	202	0.00	1020.559	0	0.000	0
20080205 23:50	5.8	4.6	5.8	67	0.2	6	16	180	0.00	1020.491	0	0.000	0
20080205 23:55	5.8	5.8	5.8	68	0.3	5	16	202	0.00	1020.627	0	0.000	0
20080205 24:00	5.8	4.5	5.8	67	0.1	6	14	202	0.00	1020.627	0	0.020	0



Please note the license to use and transfer of this data:
http://creativecommons.org/licenses/by-nc-sa/3.0/deed.en

Bitte beachten sie die Lizenz zur Verwertung und Weitergabe der Daten:
http://creativecommons.org/licenses/by-nc-sa/3.0/deed.de

zurück zur Übersicht der Archivdaten (Monats und Tagesdaten)

Cookies helfen bei der Bereitstellung von Inhalten. Durch die Nutzung dieser Seiten erklärst du dich damit einverstanden, dass Cookies auf deinem Rechner gespeichert werden. Weitere Information